sensor_id;sensor_type;location;lat;lon;timestamp;temperature;humidity
16134;DHT22;8172;45.018;5.972;2022-10-16T00:04:31;14.80;66.30
16134;DHT22;8172;45.018;5.972;2022-10-16T00:09:46;14.80;66.50
16134;DHT22;8172;45.018;5.972;2022-10-16T00:15:00;14.80;66.50
16134;DHT22;8172;45.018;5.972;2022-10-16T00:20:12;14.80;66.50
16134;DHT22;8172;45.018;5.972;2022-10-16T00:25:29;14.80;66.50
16134;DHT22;8172;45.018;5.972;2022-10-16T00:30:40;14.80;66.30
16134;DHT22;8172;45.018;5.972;2022-10-16T00:35:49;14.90;66.30
16134;DHT22;8172;45.018;5.972;2022-10-16T00:40:58;14.90;66.30
16134;DHT22;8172;45.018;5.972;2022-10-16T00:46:13;14.90;66.30
16134;DHT22;8172;45.018;5.972;2022-10-16T00:51:22;14.90;66.10
16134;DHT22;8172;45.018;5.972;2022-10-16T00:56:35;14.90;66.10
16134;DHT22;8172;45.018;5.972;2022-10-16T01:01:47;14.90;66.10
16134;DHT22;8172;45.018;5.972;2022-10-16T01:12:10;14.90;66.10
16134;DHT22;8172;45.018;5.972;2022-10-16T01:22:44;14.90;66.00
16134;DHT22;8172;45.018;5.972;2022-10-16T01:27:49;14.90;66.00
16134;DHT22;8172;45.018;5.972;2022-10-16T01:33:02;14.90;66.00
16134;DHT22;8172;45.018;5.972;2022-10-16T01:43:26;14.80;65.90
16134;DHT22;8172;45.018;5.972;2022-10-16T01:48:36;14.70;65.90
16134;DHT22;8172;45.018;5.972;2022-10-16T01:53:47;14.70;65.90
16134;DHT22;8172;45.018;5.972;2022-10-16T01:59:00;14.70;65.90
16134;DHT22;8172;45.018;5.972;2022-10-16T02:04:14;14.60;65.90
16134;DHT22;8172;45.018;5.972;2022-10-16T02:09:27;14.60;65.90
16134;DHT22;8172;45.018;5.972;2022-10-16T02:14:40;14.70;65.90
16134;DHT22;8172;45.018;5.972;2022-10-16T02:19:51;14.70;65.80
16134;DHT22;8172;45.018;5.972;2022-10-16T02:25:13;14.70;65.80
16134;DHT22;8172;45.018;5.972;2022-10-16T02:35:31;14.60;65.60
16134;DHT22;8172;45.018;5.972;2022-10-16T02:40:39;14.60;65.60
16134;DHT22;8172;45.018;5.972;2022-10-16T02:45:50;14.60;65.60
16134;DHT22;8172;45.018;5.972;2022-10-16T02:51:03;14.70;65.70
16134;DHT22;8172;45.018;5.972;2022-10-16T02:56:14;14.60;65.60
16134;DHT22;8172;45.018;5.972;2022-10-16T03:01:24;14.60;65.30
16134;DHT22;8172;45.018;5.972;2022-10-16T03:06:35;14.60;65.40
16134;DHT22;8172;45.018;5.972;2022-10-16T03:11:44;14.50;65.40
16134;DHT22;8172;45.018;5.972;2022-10-16T03:16:54;14.50;65.40
16134;DHT22;8172;45.018;5.972;2022-10-16T03:22:04;14.40;65.50
16134;DHT22;8172;45.018;5.972;2022-10-16T03:27:13;14.30;65.60
16134;DHT22;8172;45.018;5.972;2022-10-16T03:32:23;14.30;65.60
16134;DHT22;8172;45.018;5.972;2022-10-16T03:37:34;14.30;65.70
16134;DHT22;8172;45.018;5.972;2022-10-16T03:42:45;14.30;65.60
16134;DHT22;8172;45.018;5.972;2022-10-16T03:47:55;14.20;65.70
16134;DHT22;8172;45.018;5.972;2022-10-16T03:53:07;14.20;65.60
16134;DHT22;8172;45.018;5.972;2022-10-16T03:58:17;14.20;65.50
16134;DHT22;8172;45.018;5.972;2022-10-16T04:03:30;14.20;65.50
16134;DHT22;8172;45.018;5.972;2022-10-16T04:08:42;14.10;65.50
16134;DHT22;8172;45.018;5.972;2022-10-16T04:13:53;14.10;65.50
16134;DHT22;8172;45.018;5.972;2022-10-16T04:19:01;14.10;65.50
16134;DHT22;8172;45.018;5.972;2022-10-16T04:24:14;14.10;65.60
16134;DHT22;8172;45.018;5.972;2022-10-16T04:29:23;14.10;65.60
16134;DHT22;8172;45.018;5.972;2022-10-16T04:34:36;14.00;65.70
16134;DHT22;8172;45.018;5.972;2022-10-16T04:39:48;14.00;65.70
16134;DHT22;8172;45.018;5.972;2022-10-16T04:44:58;14.00;65.80
16134;DHT22;8172;45.018;5.972;2022-10-16T04:50:10;14.00;66.00
16134;DHT22;8172;45.018;5.972;2022-10-16T04:55:24;14.00;65.80
16134;DHT22;8172;45.018;5.972;2022-10-16T05:00:37;14.00;65.90
16134;DHT22;8172;45.018;5.972;2022-10-16T05:05:47;14.00;65.90
16134;DHT22;8172;45.018;5.972;2022-10-16T05:10:57;14.00;66.00
16134;DHT22;8172;45.018;5.972;2022-10-16T05:16:09;14.00;66.00
16134;DHT22;8172;45.018;5.972;2022-10-16T05:21:20;14.00;66.00
16134;DHT22;8172;45.018;5.972;2022-10-16T05:26:29;14.00;66.10
16134;DHT22;8172;45.018;5.972;2022-10-16T05:31:42;14.00;66.20
16134;DHT22;8172;45.018;5.972;2022-10-16T05:36:53;14.00;66.00
16134;DHT22;8172;45.018;5.972;2022-10-16T05:42:06;14.00;66.00
16134;DHT22;8172;45.018;5.972;2022-10-16T05:47:15;14.10;66.00
16134;DHT22;8172;45.018;5.972;2022-10-16T05:52:27;14.00;65.90
16134;DHT22;8172;45.018;5.972;2022-10-16T05:57:36;14.00;65.90
16134;DHT22;8172;45.018;5.972;2022-10-16T06:02:47;14.10;66.00
16134;DHT22;8172;45.018;5.972;2022-10-16T06:08:00;14.10;65.90
16134;DHT22;8172;45.018;5.972;2022-10-16T06:13:11;14.10;65.80
16134;DHT22;8172;45.018;5.972;2022-10-16T06:18:21;14.10;65.80
16134;DHT22;8172;45.018;5.972;2022-10-16T06:23:31;14.10;65.90
16134;DHT22;8172;45.018;5.972;2022-10-16T06:28:42;14.00;65.90
16134;DHT22;8172;45.018;5.972;2022-10-16T06:33:53;14.10;66.00
16134;DHT22;8172;45.018;5.972;2022-10-16T06:39:02;14.10;66.00
16134;DHT22;8172;45.018;5.972;2022-10-16T06:44:14;14.10;66.30
16134;DHT22;8172;45.018;5.972;2022-10-16T06:49:24;14.10;66.40
16134;DHT22;8172;45.018;5.972;2022-10-16T06:54:36;14.10;66.60
16134;DHT22;8172;45.018;5.972;2022-10-16T06:59:47;14.10;66.80
16134;DHT22;8172;45.018;5.972;2022-10-16T07:05:00;14.20;67.00
16134;DHT22;8172;45.018;5.972;2022-10-16T07:10:14;14.20;67.00
16134;DHT22;8172;45.018;5.972;2022-10-16T07:15:25;14.30;66.70
16134;DHT22;8172;45.018;5.972;2022-10-16T07:20:34;14.40;66.50
16134;DHT22;8172;45.018;5.972;2022-10-16T07:25:45;14.50;66.40
16134;DHT22;8172;45.018;5.972;2022-10-16T07:31:01;14.70;66.10
16134;DHT22;8172;45.018;5.972;2022-10-16T07:36:21;14.80;65.80
16134;DHT22;8172;45.018;5.972;2022-10-16T07:41:36;14.90;65.50
16134;DHT22;8172;45.018;5.972;2022-10-16T07:46:55;15.00;65.40
16134;DHT22;8172;45.018;5.972;2022-10-16T07:52:07;15.00;65.40
16134;DHT22;8172;45.018;5.972;2022-10-16T07:57:17;15.00;65.50
16134;DHT22;8172;45.018;5.972;2022-10-16T08:02:29;15.10;65.20
16134;DHT22;8172;45.018;5.972;2022-10-16T08:07:48;15.10;65.30
16134;DHT22;8172;45.018;5.972;2022-10-16T08:13:06;15.20;65.20
16134;DHT22;8172;45.018;5.972;2022-10-16T08:18:16;15.20;65.00
16134;DHT22;8172;45.018;5.972;2022-10-16T08:23:25;15.20;64.70
16134;DHT22;8172;45.018;5.972;2022-10-16T08:28:36;15.20;64.40
16134;DHT22;8172;45.018;5.972;2022-10-16T08:33:45;15.10;64.40
16134;DHT22;8172;45.018;5.972;2022-10-16T08:38:54;15.10;64.50
16134;DHT22;8172;45.018;5.972;2022-10-16T08:49:17;15.20;64.20
16134;DHT22;8172;45.018;5.972;2022-10-16T08:54:29;15.30;64.10
16134;DHT22;8172;45.018;5.972;2022-10-16T08:59:39;15.40;63.70
16134;DHT22;8172;45.018;5.972;2022-10-16T09:10:27;15.60;63.30
16134;DHT22;8172;45.018;5.972;2022-10-16T09:15:35;15.70;63.20
16134;DHT22;8172;45.018;5.972;2022-10-16T09:26:01;15.80;63.20
16134;DHT22;8172;45.018;5.972;2022-10-16T09:31:15;16.00;62.90
16134;DHT22;8172;45.018;5.972;2022-10-16T09:36:28;16.20;62.10
16134;DHT22;8172;45.018;5.972;2022-10-16T09:41:42;16.30;62.20
16134;DHT22;8172;45.018;5.972;2022-10-16T09:52:11;16.60;61.60
16134;DHT22;8172;45.018;5.972;2022-10-16T09:57:20;16.80;61.40
16134;DHT22;8172;45.018;5.972;2022-10-16T10:02:34;16.90;60.50
16134;DHT22;8172;45.018;5.972;2022-10-16T10:13:14;17.10;60.50
16134;DHT22;8172;45.018;5.972;2022-10-16T10:18:20;17.20;60.10
16134;DHT22;8172;45.018;5.972;2022-10-16T10:23:38;17.30;60.20
16134;DHT22;8172;45.018;5.972;2022-10-16T10:29:14;17.30;60.20
16134;DHT22;8172;45.018;5.972;2022-10-16T10:34:25;17.30;60.50
16134;DHT22;8172;45.018;5.972;2022-10-16T10:50:25;17.50;60.20
16134;DHT22;8172;45.018;5.972;2022-10-16T10:55:40;17.60;59.80
16134;DHT22;8172;45.018;5.972;2022-10-16T11:11:23;18.10;59.10
16134;DHT22;8172;45.018;5.972;2022-10-16T11:16:35;18.30;58.90
16134;DHT22;8172;45.018;5.972;2022-10-16T11:21:44;18.40;58.30
16134;DHT22;8172;45.018;5.972;2022-10-16T11:26:56;18.40;58.40
16134;DHT22;8172;45.018;5.972;2022-10-16T11:32:11;18.60;58.50
16134;DHT22;8172;45.018;5.972;2022-10-16T11:37:23;18.60;58.00
16134;DHT22;8172;45.018;5.972;2022-10-16T11:42:36;18.60;57.70
16134;DHT22;8172;45.018;5.972;2022-10-16T12:03:35;18.80;56.90
16134;DHT22;8172;45.018;5.972;2022-10-16T12:08:48;18.90;56.70
16134;DHT22;8172;45.018;5.972;2022-10-16T12:14:06;18.90;56.60
16134;DHT22;8172;45.018;5.972;2022-10-16T12:19:16;19.00;56.20
16134;DHT22;8172;45.018;5.972;2022-10-16T12:29:46;19.10;56.00
16134;DHT22;8172;45.018;5.972;2022-10-16T12:41:31;19.20;55.70
16134;DHT22;8172;45.018;5.972;2022-10-16T12:45:41;19.30;55.70
16134;DHT22;8172;45.018;5.972;2022-10-16T12:50:52;19.30;55.00
16134;DHT22;8172;45.018;5.972;2022-10-16T13:06:35;18.90;55.50
16134;DHT22;8172;45.018;5.972;2022-10-16T13:22:24;19.20;55.00
16134;DHT22;8172;45.018;5.972;2022-10-16T13:27:39;19.30;54.80
16134;DHT22;8172;45.018;5.972;2022-10-16T13:32:48;19.30;54.70
16134;DHT22;8172;45.018;5.972;2022-10-16T13:38:21;19.30;55.00
16134;DHT22;8172;45.018;5.972;2022-10-16T13:43:39;19.30;54.90
16134;DHT22;8172;45.018;5.972;2022-10-16T13:54:10;19.50;54.60
16134;DHT22;8172;45.018;5.972;2022-10-16T13:59:33;19.50;54.60
16134;DHT22;8172;45.018;5.972;2022-10-16T14:04:41;19.60;54.50
16134;DHT22;8172;45.018;5.972;2022-10-16T14:09:52;19.60;54.70
16134;DHT22;8172;45.018;5.972;2022-10-16T14:15:16;19.50;54.20
16134;DHT22;8172;45.018;5.972;2022-10-16T14:20:23;19.40;54.60
16134;DHT22;8172;45.018;5.972;2022-10-16T14:25:32;19.30;54.30
16134;DHT22;8172;45.018;5.972;2022-10-16T14:41:21;19.00;54.80
16134;DHT22;8172;45.018;5.972;2022-10-16T14:46:34;18.90;54.90
16134;DHT22;8172;45.018;5.972;2022-10-16T14:51:48;18.80;55.10
16134;DHT22;8172;45.018;5.972;2022-10-16T14:57:01;18.70;55.00
16134;DHT22;8172;45.018;5.972;2022-10-16T15:07:21;18.50;55.30
16134;DHT22;8172;45.018;5.972;2022-10-16T15:12:34;18.40;55.60
16134;DHT22;8172;45.018;5.972;2022-10-16T15:17:46;18.30;55.60
16134;DHT22;8172;45.018;5.972;2022-10-16T15:23:04;18.30;55.70
16134;DHT22;8172;45.018;5.972;2022-10-16T15:28:18;18.30;55.90
16134;DHT22;8172;45.018;5.972;2022-10-16T15:33:33;18.20;56.10
16134;DHT22;8172;45.018;5.972;2022-10-16T15:38:43;18.10;56.30
16134;DHT22;8172;45.018;5.972;2022-10-16T15:44:00;18.10;56.50
16134;DHT22;8172;45.018;5.972;2022-10-16T15:49:13;17.90;56.80
16134;DHT22;8172;45.018;5.972;2022-10-16T15:54:23;17.80;56.90
16134;DHT22;8172;45.018;5.972;2022-10-16T15:59:32;17.70;57.10
16134;DHT22;8172;45.018;5.972;2022-10-16T16:10:26;17.60;57.40
16134;DHT22;8172;45.018;5.972;2022-10-16T16:15:38;17.50;57.60
16134;DHT22;8172;45.018;5.972;2022-10-16T16:21:00;17.50;57.80
16134;DHT22;8172;45.018;5.972;2022-10-16T16:31:52;17.50;58.30
16134;DHT22;8172;45.018;5.972;2022-10-16T16:36:57;17.40;58.20
16134;DHT22;8172;45.018;5.972;2022-10-16T16:42:07;17.30;58.20
16134;DHT22;8172;45.018;5.972;2022-10-16T16:47:47;17.30;58.40
16134;DHT22;8172;45.018;5.972;2022-10-16T16:52:57;17.20;58.60
16134;DHT22;8172;45.018;5.972;2022-10-16T16:58:08;17.20;58.70
16134;DHT22;8172;45.018;5.972;2022-10-16T17:03:20;17.10;58.80
16134;DHT22;8172;45.018;5.972;2022-10-16T17:08:41;17.00;58.80
16134;DHT22;8172;45.018;5.972;2022-10-16T17:13:51;17.00;58.90
16134;DHT22;8172;45.018;5.972;2022-10-16T17:19:11;16.90;59.00
16134;DHT22;8172;45.018;5.972;2022-10-16T17:24:25;16.90;59.10
16134;DHT22;8172;45.018;5.972;2022-10-16T17:29:39;16.80;59.30
16134;DHT22;8172;45.018;5.972;2022-10-16T17:34:48;16.70;59.60
16134;DHT22;8172;45.018;5.972;2022-10-16T17:39:59;16.70;59.80
16134;DHT22;8172;45.018;5.972;2022-10-16T17:45:14;16.70;59.90
16134;DHT22;8172;45.018;5.972;2022-10-16T17:50:28;16.70;59.90
16134;DHT22;8172;45.018;5.972;2022-10-16T17:55:40;16.70;60.10
16134;DHT22;8172;45.018;5.972;2022-10-16T18:00:49;16.60;60.10
16134;DHT22;8172;45.018;5.972;2022-10-16T18:06:00;16.60;60.10
16134;DHT22;8172;45.018;5.972;2022-10-16T18:11:15;16.60;60.20
16134;DHT22;8172;45.018;5.972;2022-10-16T18:16:27;16.50;60.30
16134;DHT22;8172;45.018;5.972;2022-10-16T18:21:40;16.50;60.60
16134;DHT22;8172;45.018;5.972;2022-10-16T18:26:56;16.50;60.60
16134;DHT22;8172;45.018;5.972;2022-10-16T18:32:10;16.40;60.70
16134;DHT22;8172;45.018;5.972;2022-10-16T18:37:25;16.40;60.80
16134;DHT22;8172;45.018;5.972;2022-10-16T18:42:35;16.30;60.90
16134;DHT22;8172;45.018;5.972;2022-10-16T18:47:45;16.30;60.90
16134;DHT22;8172;45.018;5.972;2022-10-16T18:52:55;16.20;61.00
16134;DHT22;8172;45.018;5.972;2022-10-16T18:58:07;16.20;61.10
16134;DHT22;8172;45.018;5.972;2022-10-16T19:03:21;16.20;61.30
16134;DHT22;8172;45.018;5.972;2022-10-16T19:08:31;16.20;61.30
16134;DHT22;8172;45.018;5.972;2022-10-16T19:13:43;16.10;61.40
16134;DHT22;8172;45.018;5.972;2022-10-16T19:19:06;16.10;61.60
16134;DHT22;8172;45.018;5.972;2022-10-16T19:24:15;16.10;61.60
16134;DHT22;8172;45.018;5.972;2022-10-16T19:29:26;16.10;61.60
16134;DHT22;8172;45.018;5.972;2022-10-16T19:34:39;16.10;61.70
16134;DHT22;8172;45.018;5.972;2022-10-16T19:45:07;16.10;61.90
16134;DHT22;8172;45.018;5.972;2022-10-16T19:50:17;16.00;62.00
16134;DHT22;8172;45.018;5.972;2022-10-16T19:55:45;16.00;62.20
16134;DHT22;8172;45.018;5.972;2022-10-16T20:00:56;15.90;62.40
16134;DHT22;8172;45.018;5.972;2022-10-16T20:06:08;15.90;62.70
16134;DHT22;8172;45.018;5.972;2022-10-16T20:11:22;15.80;62.70
16134;DHT22;8172;45.018;5.972;2022-10-16T20:16:55;15.70;63.00
16134;DHT22;8172;45.018;5.972;2022-10-16T20:22:06;15.70;63.10
16134;DHT22;8172;45.018;5.972;2022-10-16T20:27:18;15.60;63.00
16134;DHT22;8172;45.018;5.972;2022-10-16T20:32:35;15.60;63.20
16134;DHT22;8172;45.018;5.972;2022-10-16T20:37:53;15.60;63.20
16134;DHT22;8172;45.018;5.972;2022-10-16T20:43:05;15.50;63.20
16134;DHT22;8172;45.018;5.972;2022-10-16T20:48:16;15.50;63.30
16134;DHT22;8172;45.018;5.972;2022-10-16T20:53:26;15.40;63.60
16134;DHT22;8172;45.018;5.972;2022-10-16T20:58:38;15.40;63.70
16134;DHT22;8172;45.018;5.972;2022-10-16T21:03:55;15.40;63.70
16134;DHT22;8172;45.018;5.972;2022-10-16T21:09:03;15.40;63.60
16134;DHT22;8172;45.018;5.972;2022-10-16T21:14:14;15.40;63.50
16134;DHT22;8172;45.018;5.972;2022-10-16T21:19:28;15.50;63.70
16134;DHT22;8172;45.018;5.972;2022-10-16T21:24:38;15.50;63.70
16134;DHT22;8172;45.018;5.972;2022-10-16T21:29:51;15.40;63.70
16134;DHT22;8172;45.018;5.972;2022-10-16T21:35:02;15.40;63.90
16134;DHT22;8172;45.018;5.972;2022-10-16T21:40:14;15.40;64.10
16134;DHT22;8172;45.018;5.972;2022-10-16T21:45:26;15.40;64.10
16134;DHT22;8172;45.018;5.972;2022-10-16T21:50:36;15.30;64.10
16134;DHT22;8172;45.018;5.972;2022-10-16T21:55:48;15.30;64.20
16134;DHT22;8172;45.018;5.972;2022-10-16T22:00:57;15.30;64.20
16134;DHT22;8172;45.018;5.972;2022-10-16T22:06:09;15.20;64.30
16134;DHT22;8172;45.018;5.972;2022-10-16T22:11:21;15.20;64.40
16134;DHT22;8172;45.018;5.972;2022-10-16T22:16:32;15.20;64.50
16134;DHT22;8172;45.018;5.972;2022-10-16T22:21:44;15.10;64.60
16134;DHT22;8172;45.018;5.972;2022-10-16T22:32:10;15.10;64.50
16134;DHT22;8172;45.018;5.972;2022-10-16T22:37:20;15.00;64.50
16134;DHT22;8172;45.018;5.972;2022-10-16T22:42:32;15.00;64.40
16134;DHT22;8172;45.018;5.972;2022-10-16T22:52:57;15.10;64.00
16134;DHT22;8172;45.018;5.972;2022-10-16T22:58:07;15.00;64.10
16134;DHT22;8172;45.018;5.972;2022-10-16T23:03:23;15.00;64.20
16134;DHT22;8172;45.018;5.972;2022-10-16T23:08:33;14.90;64.20
16134;DHT22;8172;45.018;5.972;2022-10-16T23:13:45;14.90;64.20
16134;DHT22;8172;45.018;5.972;2022-10-16T23:18:56;14.90;64.10
16134;DHT22;8172;45.018;5.972;2022-10-16T23:24:26;14.80;64.20
16134;DHT22;8172;45.018;5.972;2022-10-16T23:29:38;14.80;64.10
16134;DHT22;8172;45.018;5.972;2022-10-16T23:34:50;14.70;64.20
16134;DHT22;8172;45.018;5.972;2022-10-16T23:40:02;14.70;64.20
16134;DHT22;8172;45.018;5.972;2022-10-16T23:45:31;14.60;64.40
16134;DHT22;8172;45.018;5.972;2022-10-16T23:50:42;14.70;64.50
16134;DHT22;8172;45.018;5.972;2022-10-16T23:55:52;14.60;64.50
